sensor_id;sensor_type;location;lat;lon;timestamp;temperature;humidity
29031;DHT22;16122;50.236;11.734;2023-02-01T00:01:46;14.90;54.30
29031;DHT22;16122;50.236;11.734;2023-02-01T00:04:12;14.90;54.30
29031;DHT22;16122;50.236;11.734;2023-02-01T00:06:37;14.90;54.20
29031;DHT22;16122;50.236;11.734;2023-02-01T00:09:04;14.90;54.10
29031;DHT22;16122;50.236;11.734;2023-02-01T00:11:29;14.90;54.20
29031;DHT22;16122;50.236;11.734;2023-02-01T00:13:56;14.90;54.10
29031;DHT22;16122;50.236;11.734;2023-02-01T00:16:28;14.80;54.10
29031;DHT22;16122;50.236;11.734;2023-02-01T00:19:00;14.90;54.10
29031;DHT22;16122;50.236;11.734;2023-02-01T00:21:26;14.90;54.10
29031;DHT22;16122;50.236;11.734;2023-02-01T00:23:53;14.90;54.20
29031;DHT22;16122;50.236;11.734;2023-02-01T00:26:36;14.90;54.10
29031;DHT22;16122;50.236;11.734;2023-02-01T00:29:04;14.90;54.10
29031;DHT22;16122;50.236;11.734;2023-02-01T00:31:31;14.90;54.10
29031;DHT22;16122;50.236;11.734;2023-02-01T00:33:57;14.90;54.10
29031;DHT22;16122;50.236;11.734;2023-02-01T00:36:23;14.80;54.00
29031;DHT22;16122;50.236;11.734;2023-02-01T00:38:49;14.80;53.90
29031;DHT22;16122;50.236;11.734;2023-02-01T00:41:19;14.90;54.00
29031;DHT22;16122;50.236;11.734;2023-02-01T00:43:46;14.90;53.90
29031;DHT22;16122;50.236;11.734;2023-02-01T00:46:14;14.90;54.00
29031;DHT22;16122;50.236;11.734;2023-02-01T00:48:40;14.90;54.00
29031;DHT22;16122;50.236;11.734;2023-02-01T00:51:13;14.90;54.10
29031;DHT22;16122;50.236;11.734;2023-02-01T00:53:40;14.90;54.10
29031;DHT22;16122;50.236;11.734;2023-02-01T00:56:06;14.90;54.20
29031;DHT22;16122;50.236;11.734;2023-02-01T00:58:33;14.90;54.20
29031;DHT22;16122;50.236;11.734;2023-02-01T01:03:33;14.90;54.20
29031;DHT22;16122;50.236;11.734;2023-02-01T01:06:02;14.90;54.10
29031;DHT22;16122;50.236;11.734;2023-02-01T01:08:29;14.90;54.20
29031;DHT22;16122;50.236;11.734;2023-02-01T01:10:55;14.90;54.10
29031;DHT22;16122;50.236;11.734;2023-02-01T01:13:21;14.90;54.10
29031;DHT22;16122;50.236;11.734;2023-02-01T01:15:47;14.90;54.10
29031;DHT22;16122;50.236;11.734;2023-02-01T01:18:12;14.90;54.10
29031;DHT22;16122;50.236;11.734;2023-02-01T01:20:40;14.90;54.10
29031;DHT22;16122;50.236;11.734;2023-02-01T01:23:08;14.90;54.10
29031;DHT22;16122;50.236;11.734;2023-02-01T01:25:40;14.90;54.10
29031;DHT22;16122;50.236;11.734;2023-02-01T01:28:06;14.90;54.10
29031;DHT22;16122;50.236;11.734;2023-02-01T01:30:34;14.90;54.00
29031;DHT22;16122;50.236;11.734;2023-02-01T01:32:59;14.90;54.00
29031;DHT22;16122;50.236;11.734;2023-02-01T01:35:25;14.90;54.00
29031;DHT22;16122;50.236;11.734;2023-02-01T01:37:51;14.90;54.00
29031;DHT22;16122;50.236;11.734;2023-02-01T01:40:17;14.90;54.00
29031;DHT22;16122;50.236;11.734;2023-02-01T01:42:44;14.90;54.00
29031;DHT22;16122;50.236;11.734;2023-02-01T01:47:50;14.90;54.00
29031;DHT22;16122;50.236;11.734;2023-02-01T01:50:21;14.90;54.00
29031;DHT22;16122;50.236;11.734;2023-02-01T01:52:50;14.90;54.00
29031;DHT22;16122;50.236;11.734;2023-02-01T01:55:19;14.90;53.90
29031;DHT22;16122;50.236;11.734;2023-02-01T01:58:08;14.90;54.00
29031;DHT22;16122;50.236;11.734;2023-02-01T02:00:36;14.90;53.90
29031;DHT22;16122;50.236;11.734;2023-02-01T02:03:19;14.90;53.90
29031;DHT22;16122;50.236;11.734;2023-02-01T02:05:48;14.90;53.90
29031;DHT22;16122;50.236;11.734;2023-02-01T02:08:15;14.90;53.80
29031;DHT22;16122;50.236;11.734;2023-02-01T02:10:41;14.90;53.80
29031;DHT22;16122;50.236;11.734;2023-02-01T02:13:35;14.90;53.80
29031;DHT22;16122;50.236;11.734;2023-02-01T02:18:47;14.90;53.80
29031;DHT22;16122;50.236;11.734;2023-02-01T02:21:30;15.00;53.80
29031;DHT22;16122;50.236;11.734;2023-02-01T02:24:34;15.00;53.90
29031;DHT22;16122;50.236;11.734;2023-02-01T02:35:51;14.90;53.80
29031;DHT22;16122;50.236;11.734;2023-02-01T02:38:32;15.00;53.80
29031;DHT22;16122;50.236;11.734;2023-02-01T02:41:20;15.00;53.90
29031;DHT22;16122;50.236;11.734;2023-02-01T02:44:35;15.00;53.90
29031;DHT22;16122;50.236;11.734;2023-02-01T02:47:33;15.00;53.80
29031;DHT22;16122;50.236;11.734;2023-02-01T02:50:15;15.00;53.80
29031;DHT22;16122;50.236;11.734;2023-02-01T02:53:15;15.00;53.90
29031;DHT22;16122;50.236;11.734;2023-02-01T02:56:03;14.90;53.80
29031;DHT22;16122;50.236;11.734;2023-02-01T02:58:48;15.00;53.80
29031;DHT22;16122;50.236;11.734;2023-02-01T03:01:34;15.00;53.80
29031;DHT22;16122;50.236;11.734;2023-02-01T03:04:19;15.00;53.80
29031;DHT22;16122;50.236;11.734;2023-02-01T03:06:48;15.00;53.80
29031;DHT22;16122;50.236;11.734;2023-02-01T03:09:29;15.00;53.80
29031;DHT22;16122;50.236;11.734;2023-02-01T03:12:01;15.00;53.70
29031;DHT22;16122;50.236;11.734;2023-02-01T03:14:50;15.00;53.70
29031;DHT22;16122;50.236;11.734;2023-02-01T03:17:22;15.00;53.70
29031;DHT22;16122;50.236;11.734;2023-02-01T03:19:52;15.00;53.70
29031;DHT22;16122;50.236;11.734;2023-02-01T03:22:27;15.00;53.70
29031;DHT22;16122;50.236;11.734;2023-02-01T03:25:16;15.00;53.70
29031;DHT22;16122;50.236;11.734;2023-02-01T03:27:51;15.00;53.70
29031;DHT22;16122;50.236;11.734;2023-02-01T03:32:49;15.00;53.70
29031;DHT22;16122;50.236;11.734;2023-02-01T03:41:24;15.00;54.20
29031;DHT22;16122;50.236;11.734;2023-02-01T03:44:04;15.00;53.60
29031;DHT22;16122;50.236;11.734;2023-02-01T03:46:39;15.00;53.60
29031;DHT22;16122;50.236;11.734;2023-02-01T03:49:09;15.00;53.60
29031;DHT22;16122;50.236;11.734;2023-02-01T03:51:39;15.00;53.70
29031;DHT22;16122;50.236;11.734;2023-02-01T03:54:11;15.00;53.70
29031;DHT22;16122;50.236;11.734;2023-02-01T03:56:40;15.00;53.60
29031;DHT22;16122;50.236;11.734;2023-02-01T03:59:11;15.00;53.60
29031;DHT22;16122;50.236;11.734;2023-02-01T04:01:37;15.00;53.60
29031;DHT22;16122;50.236;11.734;2023-02-01T04:04:03;15.00;53.60
29031;DHT22;16122;50.236;11.734;2023-02-01T04:06:29;15.00;53.60
29031;DHT22;16122;50.236;11.734;2023-02-01T04:08:59;15.00;53.50
29031;DHT22;16122;50.236;11.734;2023-02-01T04:11:25;15.00;53.60
29031;DHT22;16122;50.236;11.734;2023-02-01T04:13:53;15.00;53.60
29031;DHT22;16122;50.236;11.734;2023-02-01T04:16:18;15.00;53.60
29031;DHT22;16122;50.236;11.734;2023-02-01T04:18:45;15.00;53.60
29031;DHT22;16122;50.236;11.734;2023-02-01T04:21:10;15.00;53.60
29031;DHT22;16122;50.236;11.734;2023-02-01T04:23:36;15.00;53.50
29031;DHT22;16122;50.236;11.734;2023-02-01T04:26:03;15.00;53.50
29031;DHT22;16122;50.236;11.734;2023-02-01T04:28:30;15.10;53.60
29031;DHT22;16122;50.236;11.734;2023-02-01T04:30:56;15.10;53.70
29031;DHT22;16122;50.236;11.734;2023-02-01T04:33:23;15.00;53.50
29031;DHT22;16122;50.236;11.734;2023-02-01T04:35:49;15.10;53.60
29031;DHT22;16122;50.236;11.734;2023-02-01T04:38:15;15.00;53.40
29031;DHT22;16122;50.236;11.734;2023-02-01T04:40:42;15.10;53.50
29031;DHT22;16122;50.236;11.734;2023-02-01T04:43:08;15.10;54.20
29031;DHT22;16122;50.236;11.734;2023-02-01T04:45:33;15.00;53.40
29031;DHT22;16122;50.236;11.734;2023-02-01T04:47:59;15.00;53.30
29031;DHT22;16122;50.236;11.734;2023-02-01T04:50:25;15.10;53.40
29031;DHT22;16122;50.236;11.734;2023-02-01T04:52:51;15.00;53.30
29031;DHT22;16122;50.236;11.734;2023-02-01T04:55:17;15.00;53.30
29031;DHT22;16122;50.236;11.734;2023-02-01T04:57:43;15.10;53.40
29031;DHT22;16122;50.236;11.734;2023-02-01T05:00:09;15.10;53.40
29031;DHT22;16122;50.236;11.734;2023-02-01T05:02:35;15.10;53.40
29031;DHT22;16122;50.236;11.734;2023-02-01T05:05:01;15.10;53.50
29031;DHT22;16122;50.236;11.734;2023-02-01T05:07:27;15.00;53.50
29031;DHT22;16122;50.236;11.734;2023-02-01T05:09:53;15.10;53.70
29031;DHT22;16122;50.236;11.734;2023-02-01T05:12:19;15.10;53.70
29031;DHT22;16122;50.236;11.734;2023-02-01T05:15:04;15.10;53.70
29031;DHT22;16122;50.236;11.734;2023-02-01T05:17:30;15.10;53.90
29031;DHT22;16122;50.236;11.734;2023-02-01T05:19:56;15.00;53.80
29031;DHT22;16122;50.236;11.734;2023-02-01T05:22:22;15.10;54.00
29031;DHT22;16122;50.236;11.734;2023-02-01T05:24:48;15.00;54.00
29031;DHT22;16122;50.236;11.734;2023-02-01T05:27:14;15.10;54.20
29031;DHT22;16122;50.236;11.734;2023-02-01T05:29:40;15.00;54.20
29031;DHT22;16122;50.236;11.734;2023-02-01T05:32:06;15.10;54.80
29031;DHT22;16122;50.236;11.734;2023-02-01T05:34:31;15.10;54.50
29031;DHT22;16122;50.236;11.734;2023-02-01T05:36:57;15.10;54.60
29031;DHT22;16122;50.236;11.734;2023-02-01T05:39:23;15.10;54.70
29031;DHT22;16122;50.236;11.734;2023-02-01T05:41:49;15.10;54.60
29031;DHT22;16122;50.236;11.734;2023-02-01T05:44:15;15.10;54.80
29031;DHT22;16122;50.236;11.734;2023-02-01T05:46:41;15.10;54.80
29031;DHT22;16122;50.236;11.734;2023-02-01T05:49:07;15.10;54.80
29031;DHT22;16122;50.236;11.734;2023-02-01T05:51:33;15.10;54.80
29031;DHT22;16122;50.236;11.734;2023-02-01T05:53:59;15.10;54.80
29031;DHT22;16122;50.236;11.734;2023-02-01T05:56:25;15.10;54.90
29031;DHT22;16122;50.236;11.734;2023-02-01T05:58:51;15.10;54.80
29031;DHT22;16122;50.236;11.734;2023-02-01T06:01:17;15.10;54.80
29031;DHT22;16122;50.236;11.734;2023-02-01T06:03:43;15.10;54.80
29031;DHT22;16122;50.236;11.734;2023-02-01T06:06:08;15.10;54.80
29031;DHT22;16122;50.236;11.734;2023-02-01T06:08:34;15.10;54.80
29031;DHT22;16122;50.236;11.734;2023-02-01T06:11:02;15.10;54.80
29031;DHT22;16122;50.236;11.734;2023-02-01T06:13:28;15.10;54.80
29031;DHT22;16122;50.236;11.734;2023-02-01T06:15:54;15.10;54.80
29031;DHT22;16122;50.236;11.734;2023-02-01T06:18:21;15.10;54.70
29031;DHT22;16122;50.236;11.734;2023-02-01T06:20:56;15.10;54.70
29031;DHT22;16122;50.236;11.734;2023-02-01T06:23:22;15.10;54.70
29031;DHT22;16122;50.236;11.734;2023-02-01T06:25:52;15.10;54.80
29031;DHT22;16122;50.236;11.734;2023-02-01T06:28:23;15.10;54.80
29031;DHT22;16122;50.236;11.734;2023-02-01T06:30:49;15.10;54.80
29031;DHT22;16122;50.236;11.734;2023-02-01T06:33:16;15.10;54.90
29031;DHT22;16122;50.236;11.734;2023-02-01T06:35:42;15.10;54.70
29031;DHT22;16122;50.236;11.734;2023-02-01T06:38:10;15.10;54.60
29031;DHT22;16122;50.236;11.734;2023-02-01T06:40:37;15.10;54.50
29031;DHT22;16122;50.236;11.734;2023-02-01T06:43:03;15.10;54.60
29031;DHT22;16122;50.236;11.734;2023-02-01T06:45:29;15.10;54.70
29031;DHT22;16122;50.236;11.734;2023-02-01T06:47:55;15.10;54.70
29031;DHT22;16122;50.236;11.734;2023-02-01T06:50:21;15.10;54.70
29031;DHT22;16122;50.236;11.734;2023-02-01T06:52:47;15.10;54.70
29031;DHT22;16122;50.236;11.734;2023-02-01T06:55:13;15.10;54.60
29031;DHT22;16122;50.236;11.734;2023-02-01T06:57:39;15.10;54.70
29031;DHT22;16122;50.236;11.734;2023-02-01T07:00:05;15.10;54.70
29031;DHT22;16122;50.236;11.734;2023-02-01T07:02:31;15.10;54.60
29031;DHT22;16122;50.236;11.734;2023-02-01T07:04:57;15.10;54.70
29031;DHT22;16122;50.236;11.734;2023-02-01T07:07:23;15.10;54.70
29031;DHT22;16122;50.236;11.734;2023-02-01T07:09:49;15.10;54.70
29031;DHT22;16122;50.236;11.734;2023-02-01T07:12:16;15.10;54.80
29031;DHT22;16122;50.236;11.734;2023-02-01T07:14:42;15.10;54.70
29031;DHT22;16122;50.236;11.734;2023-02-01T07:17:08;15.10;54.80
29031;DHT22;16122;50.236;11.734;2023-02-01T07:19:34;15.20;54.80
29031;DHT22;16122;50.236;11.734;2023-02-01T07:22:00;15.10;54.70
29031;DHT22;16122;50.236;11.734;2023-02-01T07:24:26;15.10;54.70
29031;DHT22;16122;50.236;11.734;2023-02-01T07:26:52;15.10;54.70
29031;DHT22;16122;50.236;11.734;2023-02-01T07:29:18;15.10;54.60
29031;DHT22;16122;50.236;11.734;2023-02-01T07:31:44;15.10;54.60
29031;DHT22;16122;50.236;11.734;2023-02-01T07:34:10;15.20;54.70
29031;DHT22;16122;50.236;11.734;2023-02-01T07:36:36;15.10;54.60
29031;DHT22;16122;50.236;11.734;2023-02-01T07:39:04;15.10;54.60
29031;DHT22;16122;50.236;11.734;2023-02-01T07:41:30;15.10;54.60
29031;DHT22;16122;50.236;11.734;2023-02-01T07:43:56;15.20;54.60
29031;DHT22;16122;50.236;11.734;2023-02-01T07:46:22;15.10;54.50
29031;DHT22;16122;50.236;11.734;2023-02-01T07:48:48;15.10;54.50
29031;DHT22;16122;50.236;11.734;2023-02-01T07:51:16;15.10;54.50
29031;DHT22;16122;50.236;11.734;2023-02-01T07:53:43;15.20;54.60
29031;DHT22;16122;50.236;11.734;2023-02-01T07:56:17;15.10;54.50
29031;DHT22;16122;50.236;11.734;2023-02-01T07:58:51;15.10;54.50
29031;DHT22;16122;50.236;11.734;2023-02-01T08:01:20;15.10;54.50
29031;DHT22;16122;50.236;11.734;2023-02-01T08:03:54;15.20;54.60
29031;DHT22;16122;50.236;11.734;2023-02-01T08:06:20;15.20;54.50
29031;DHT22;16122;50.236;11.734;2023-02-01T08:08:50;15.10;54.20
29031;DHT22;16122;50.236;11.734;2023-02-01T08:11:16;15.10;54.20
29031;DHT22;16122;50.236;11.734;2023-02-01T08:13:43;15.10;54.20
29031;DHT22;16122;50.236;11.734;2023-02-01T08:16:13;15.10;54.20
29031;DHT22;16122;50.236;11.734;2023-02-01T08:18:40;15.20;54.20
29031;DHT22;16122;50.236;11.734;2023-02-01T08:21:08;15.20;54.20
29031;DHT22;16122;50.236;11.734;2023-02-01T08:23:35;15.10;54.00
29031;DHT22;16122;50.236;11.734;2023-02-01T08:26:12;15.20;54.00
29031;DHT22;16122;50.236;11.734;2023-02-01T08:28:45;15.20;54.00
29031;DHT22;16122;50.236;11.734;2023-02-01T08:31:14;15.20;54.00
29031;DHT22;16122;50.236;11.734;2023-02-01T08:33:41;15.10;53.80
29031;DHT22;16122;50.236;11.734;2023-02-01T08:36:08;15.20;53.90
29031;DHT22;16122;50.236;11.734;2023-02-01T08:38:39;15.10;53.90
29031;DHT22;16122;50.236;11.734;2023-02-01T08:41:13;15.10;54.50
29031;DHT22;16122;50.236;11.734;2023-02-01T08:43:40;15.10;53.90
29031;DHT22;16122;50.236;11.734;2023-02-01T08:46:07;15.20;54.00
29031;DHT22;16122;50.236;11.734;2023-02-01T08:48:34;15.20;54.00
29031;DHT22;16122;50.236;11.734;2023-02-01T08:51:08;15.20;54.10
29031;DHT22;16122;50.236;11.734;2023-02-01T08:53:36;15.10;53.90
29031;DHT22;16122;50.236;11.734;2023-02-01T08:56:03;15.10;53.90
29031;DHT22;16122;50.236;11.734;2023-02-01T08:58:29;15.20;53.90
29031;DHT22;16122;50.236;11.734;2023-02-01T09:00:55;15.10;53.90
29031;DHT22;16122;50.236;11.734;2023-02-01T09:03:21;15.10;53.90
29031;DHT22;16122;50.236;11.734;2023-02-01T09:05:47;15.10;53.80
29031;DHT22;16122;50.236;11.734;2023-02-01T09:08:13;15.10;53.90
29031;DHT22;16122;50.236;11.734;2023-02-01T09:10:41;15.10;53.80
29031;DHT22;16122;50.236;11.734;2023-02-01T09:13:08;15.20;54.50
29031;DHT22;16122;50.236;11.734;2023-02-01T09:15:34;15.20;53.90
29031;DHT22;16122;50.236;11.734;2023-02-01T09:18:00;15.20;54.00
29031;DHT22;16122;50.236;11.734;2023-02-01T09:20:26;15.20;54.00
29031;DHT22;16122;50.236;11.734;2023-02-01T09:22:54;15.20;54.00
29031;DHT22;16122;50.236;11.734;2023-02-01T09:25:20;15.10;54.00
29031;DHT22;16122;50.236;11.734;2023-02-01T09:27:45;15.10;54.00
29031;DHT22;16122;50.236;11.734;2023-02-01T09:30:11;15.20;54.00
29031;DHT22;16122;50.236;11.734;2023-02-01T09:32:37;15.10;54.00
29031;DHT22;16122;50.236;11.734;2023-02-01T09:35:03;15.10;53.90
29031;DHT22;16122;50.236;11.734;2023-02-01T09:37:29;15.10;53.90
29031;DHT22;16122;50.236;11.734;2023-02-01T09:39:55;15.20;53.90
29031;DHT22;16122;50.236;11.734;2023-02-01T09:45:14;15.20;53.90
29031;DHT22;16122;50.236;11.734;2023-02-01T09:47:49;15.10;53.90
29031;DHT22;16122;50.236;11.734;2023-02-01T09:50:19;15.10;53.90
29031;DHT22;16122;50.236;11.734;2023-02-01T09:53:10;15.10;53.80
29031;DHT22;16122;50.236;11.734;2023-02-01T09:55:48;15.10;53.70
29031;DHT22;16122;50.236;11.734;2023-02-01T10:01:24;15.10;53.70
29031;DHT22;16122;50.236;11.734;2023-02-01T10:04:02;15.10;53.60
29031;DHT22;16122;50.236;11.734;2023-02-01T10:26:22;15.10;53.50
29031;DHT22;16122;50.236;11.734;2023-02-01T10:28:55;15.10;53.40
29031;DHT22;16122;50.236;11.734;2023-02-01T10:31:28;15.10;53.50
29031;DHT22;16122;50.236;11.734;2023-02-01T10:33:58;15.10;53.40
29031;DHT22;16122;50.236;11.734;2023-02-01T10:36:32;15.10;53.40
29031;DHT22;16122;50.236;11.734;2023-02-01T10:39:02;15.10;53.40
29031;DHT22;16122;50.236;11.734;2023-02-01T10:41:39;15.10;53.30
29031;DHT22;16122;50.236;11.734;2023-02-01T10:44:15;15.10;53.30
29031;DHT22;16122;50.236;11.734;2023-02-01T10:46:41;15.10;53.30
29031;DHT22;16122;50.236;11.734;2023-02-01T10:49:29;15.10;53.20
29031;DHT22;16122;50.236;11.734;2023-02-01T10:52:17;15.10;53.30
29031;DHT22;16122;50.236;11.734;2023-02-01T10:54:45;15.10;53.50
29031;DHT22;16122;50.236;11.734;2023-02-01T10:57:24;15.10;53.60
29031;DHT22;16122;50.236;11.734;2023-02-01T10:59:52;15.10;53.90
29031;DHT22;16122;50.236;11.734;2023-02-01T11:02:31;15.10;54.00
29031;DHT22;16122;50.236;11.734;2023-02-01T11:05:10;15.10;54.20
29031;DHT22;16122;50.236;11.734;2023-02-01T11:07:39;15.10;54.20
29031;DHT22;16122;50.236;11.734;2023-02-01T11:10:36;15.20;54.50
29031;DHT22;16122;50.236;11.734;2023-02-01T11:13:03;15.20;54.40
29031;DHT22;16122;50.236;11.734;2023-02-01T11:15:30;15.20;54.50
29031;DHT22;16122;50.236;11.734;2023-02-01T11:17:56;15.20;54.40
29031;DHT22;16122;50.236;11.734;2023-02-01T11:22:57;15.10;54.50
29031;DHT22;16122;50.236;11.734;2023-02-01T11:25:24;15.20;54.50
29031;DHT22;16122;50.236;11.734;2023-02-01T11:27:52;15.20;54.50
29031;DHT22;16122;50.236;11.734;2023-02-01T11:30:39;15.10;54.40
29031;DHT22;16122;50.236;11.734;2023-02-01T11:33:09;15.20;54.50
29031;DHT22;16122;50.236;11.734;2023-02-01T11:35:38;15.10;54.50
29031;DHT22;16122;50.236;11.734;2023-02-01T11:38:27;15.20;54.60
29031;DHT22;16122;50.236;11.734;2023-02-01T11:40:53;15.20;54.60
29031;DHT22;16122;50.236;11.734;2023-02-01T11:43:26;15.10;54.50
29031;DHT22;16122;50.236;11.734;2023-02-01T11:46:01;15.20;54.60
29031;DHT22;16122;50.236;11.734;2023-02-01T11:48:30;15.10;54.40
29031;DHT22;16122;50.236;11.734;2023-02-01T11:51:21;15.10;54.40
29031;DHT22;16122;50.236;11.734;2023-02-01T11:59:26;15.20;54.60
29031;DHT22;16122;50.236;11.734;2023-02-01T12:05:20;15.20;54.50
29031;DHT22;16122;50.236;11.734;2023-02-01T12:13:09;15.20;54.60
29031;DHT22;16122;50.236;11.734;2023-02-01T12:21:26;15.10;54.50
29031;DHT22;16122;50.236;11.734;2023-02-01T12:23:59;15.20;54.60
29031;DHT22;16122;50.236;11.734;2023-02-01T12:38:21;15.20;54.50
29031;DHT22;16122;50.236;11.734;2023-02-01T12:41:02;15.10;54.50
29031;DHT22;16122;50.236;11.734;2023-02-01T12:46:27;15.10;54.40
29031;DHT22;16122;50.236;11.734;2023-02-01T12:49:57;15.10;54.40
29031;DHT22;16122;50.236;11.734;2023-02-01T12:51:54;15.20;54.50
29031;DHT22;16122;50.236;11.734;2023-02-01T12:54:50;15.10;54.40
29031;DHT22;16122;50.236;11.734;2023-02-01T12:57:31;15.10;54.40
29031;DHT22;16122;50.236;11.734;2023-02-01T13:00:22;15.10;54.30
29031;DHT22;16122;50.236;11.734;2023-02-01T13:05:51;15.20;54.30
29031;DHT22;16122;50.236;11.734;2023-02-01T13:08:26;15.10;54.10
29031;DHT22;16122;50.236;11.734;2023-02-01T13:11:10;15.10;54.30
29031;DHT22;16122;50.236;11.734;2023-02-01T13:13:52;15.20;54.40
29031;DHT22;16122;50.236;11.734;2023-02-01T13:16:37;15.20;54.90
29031;DHT22;16122;50.236;11.734;2023-02-01T13:19:29;15.20;54.30
29031;DHT22;16122;50.236;11.734;2023-02-01T13:25:24;15.20;54.20
29031;DHT22;16122;50.236;11.734;2023-02-01T13:27:54;15.20;54.20
29031;DHT22;16122;50.236;11.734;2023-02-01T13:30:46;15.20;54.30
29031;DHT22;16122;50.236;11.734;2023-02-01T13:36:09;15.20;54.20
29031;DHT22;16122;50.236;11.734;2023-02-01T13:41:40;15.10;54.10
29031;DHT22;16122;50.236;11.734;2023-02-01T13:44:16;15.10;54.00
29031;DHT22;16122;50.236;11.734;2023-02-01T13:46:46;15.10;54.30
29031;DHT22;16122;50.236;11.734;2023-02-01T13:49:37;15.10;54.00
29031;DHT22;16122;50.236;11.734;2023-02-01T13:52:04;15.10;54.00
29031;DHT22;16122;50.236;11.734;2023-02-01T13:54:33;15.10;54.00
29031;DHT22;16122;50.236;11.734;2023-02-01T13:57:04;15.10;54.00
29031;DHT22;16122;50.236;11.734;2023-02-01T14:05:09;15.10;54.20
29031;DHT22;16122;50.236;11.734;2023-02-01T14:07:36;15.10;54.10
29031;DHT22;16122;50.236;11.734;2023-02-01T14:13:22;15.10;54.20
29031;DHT22;16122;50.236;11.734;2023-02-01T14:29:00;15.10;54.20
29031;DHT22;16122;50.236;11.734;2023-02-01T14:34:14;15.10;54.20
29031;DHT22;16122;50.236;11.734;2023-02-01T14:36:50;15.10;54.10
29031;DHT22;16122;50.236;11.734;2023-02-01T14:42:04;15.10;54.10
29031;DHT22;16122;50.236;11.734;2023-02-01T14:44:33;15.10;54.00
29031;DHT22;16122;50.236;11.734;2023-02-01T14:47:26;15.10;53.90
29031;DHT22;16122;50.236;11.734;2023-02-01T14:50:04;15.10;54.10
29031;DHT22;16122;50.236;11.734;2023-02-01T14:52:42;15.10;54.10
29031;DHT22;16122;50.236;11.734;2023-02-01T14:55:37;15.10;54.00
29031;DHT22;16122;50.236;11.734;2023-02-01T15:00:57;15.10;53.90
29031;DHT22;16122;50.236;11.734;2023-02-01T15:06:36;15.10;53.80
29031;DHT22;16122;50.236;11.734;2023-02-01T15:09:14;15.10;53.80
29031;DHT22;16122;50.236;11.734;2023-02-01T15:14:30;15.10;53.90
29031;DHT22;16122;50.236;11.734;2023-02-01T15:16:55;15.10;53.90
29031;DHT22;16122;50.236;11.734;2023-02-01T15:19:24;15.10;53.90
29031;DHT22;16122;50.236;11.734;2023-02-01T15:21:53;15.10;53.90
29031;DHT22;16122;50.236;11.734;2023-02-01T15:24:21;15.10;53.80
29031;DHT22;16122;50.236;11.734;2023-02-01T15:26:47;15.10;53.70
29031;DHT22;16122;50.236;11.734;2023-02-01T15:29:14;15.10;53.70
29031;DHT22;16122;50.236;11.734;2023-02-01T15:31:46;15.10;53.70
29031;DHT22;16122;50.236;11.734;2023-02-01T15:34:13;15.10;53.70
29031;DHT22;16122;50.236;11.734;2023-02-01T15:36:39;15.10;53.90
29031;DHT22;16122;50.236;11.734;2023-02-01T15:41:58;15.10;54.00
29031;DHT22;16122;50.236;11.734;2023-02-01T15:46:53;15.10;53.90
29031;DHT22;16122;50.236;11.734;2023-02-01T15:49:26;15.10;53.90
29031;DHT22;16122;50.236;11.734;2023-02-01T15:51:53;15.00;54.40
29031;DHT22;16122;50.236;11.734;2023-02-01T15:54:24;15.10;53.90
29031;DHT22;16122;50.236;11.734;2023-02-01T15:56:53;15.10;53.80
29031;DHT22;16122;50.236;11.734;2023-02-01T15:59:25;15.00;53.60
29031;DHT22;16122;50.236;11.734;2023-02-01T16:01:53;15.10;53.80
29031;DHT22;16122;50.236;11.734;2023-02-01T16:04:24;15.10;53.70
29031;DHT22;16122;50.236;11.734;2023-02-01T16:06:54;15.10;53.80
29031;DHT22;16122;50.236;11.734;2023-02-01T16:09:34;15.00;53.80
29031;DHT22;16122;50.236;11.734;2023-02-01T16:12:02;15.00;53.80
29031;DHT22;16122;50.236;11.734;2023-02-01T16:14:29;15.00;54.00
29031;DHT22;16122;50.236;11.734;2023-02-01T16:16:57;15.00;54.00
29031;DHT22;16122;50.236;11.734;2023-02-01T16:19:23;15.00;54.00
29031;DHT22;16122;50.236;11.734;2023-02-01T16:21:54;15.00;54.00
29031;DHT22;16122;50.236;11.734;2023-02-01T16:24:20;15.00;53.80
29031;DHT22;16122;50.236;11.734;2023-02-01T16:26:48;15.00;54.40
29031;DHT22;16122;50.236;11.734;2023-02-01T16:29:14;15.10;53.90
29031;DHT22;16122;50.236;11.734;2023-02-01T16:31:41;15.00;53.90
29031;DHT22;16122;50.236;11.734;2023-02-01T16:34:14;15.00;53.90
29031;DHT22;16122;50.236;11.734;2023-02-01T16:36:43;15.00;54.00
29031;DHT22;16122;50.236;11.734;2023-02-01T16:39:11;15.00;54.00
29031;DHT22;16122;50.236;11.734;2023-02-01T16:41:38;15.00;53.90
29031;DHT22;16122;50.236;11.734;2023-02-01T16:44:05;15.00;54.00
29031;DHT22;16122;50.236;11.734;2023-02-01T16:46:35;15.00;54.00
29031;DHT22;16122;50.236;11.734;2023-02-01T16:49:05;15.00;54.00
29031;DHT22;16122;50.236;11.734;2023-02-01T16:51:34;15.00;54.00
29031;DHT22;16122;50.236;11.734;2023-02-01T16:54:01;15.00;54.00
29031;DHT22;16122;50.236;11.734;2023-02-01T16:56:34;15.00;54.60
29031;DHT22;16122;50.236;11.734;2023-02-01T16:59:01;15.00;53.90
29031;DHT22;16122;50.236;11.734;2023-02-01T17:01:27;15.00;54.00
29031;DHT22;16122;50.236;11.734;2023-02-01T17:03:53;15.00;54.00
29031;DHT22;16122;50.236;11.734;2023-02-01T17:06:22;15.00;54.10
29031;DHT22;16122;50.236;11.734;2023-02-01T17:08:56;15.00;54.30
29031;DHT22;16122;50.236;11.734;2023-02-01T17:11:26;15.00;54.40
29031;DHT22;16122;50.236;11.734;2023-02-01T17:13:53;15.00;54.50
29031;DHT22;16122;50.236;11.734;2023-02-01T17:18:52;15.00;54.70
29031;DHT22;16122;50.236;11.734;2023-02-01T17:21:18;15.00;54.70
29031;DHT22;16122;50.236;11.734;2023-02-01T17:23:44;15.00;54.70
29031;DHT22;16122;50.236;11.734;2023-02-01T17:26:11;15.00;54.70
29031;DHT22;16122;50.236;11.734;2023-02-01T17:28:37;15.00;55.00
29031;DHT22;16122;50.236;11.734;2023-02-01T17:31:04;15.00;55.10
29031;DHT22;16122;50.236;11.734;2023-02-01T17:33:33;15.00;55.10
29031;DHT22;16122;50.236;11.734;2023-02-01T17:36:00;15.00;55.20
29031;DHT22;16122;50.236;11.734;2023-02-01T17:38:26;15.00;55.30
29031;DHT22;16122;50.236;11.734;2023-02-01T17:40:52;15.00;55.30
29031;DHT22;16122;50.236;11.734;2023-02-01T17:43:21;15.00;55.30
29031;DHT22;16122;50.236;11.734;2023-02-01T17:46:00;15.00;55.50
29031;DHT22;16122;50.236;11.734;2023-02-01T17:48:27;15.00;55.50
29031;DHT22;16122;50.236;11.734;2023-02-01T17:50:53;15.00;55.50
29031;DHT22;16122;50.236;11.734;2023-02-01T17:53:27;15.00;55.60
29031;DHT22;16122;50.236;11.734;2023-02-01T17:55:53;15.00;55.60
29031;DHT22;16122;50.236;11.734;2023-02-01T17:58:21;15.00;55.60
29031;DHT22;16122;50.236;11.734;2023-02-01T18:00:48;15.00;55.70